Terminal Aerodrome Forecast
Issued by NWS

Home | Current Version | Previous Version | Text Only | Print | Product List | Glossary On
Versions: 1 2 3 4 5 6 7 8 9 10 11 12 13 14 15
000
FTUS43 KTOP 060520
TAFFOE
TAF
KFOE 060520Z 0606/0706 16013KT P6SM BKN250
     FM061500 20014G22KT P6SM SCT040
     FM062300 19010KT 5SM TSRA OVC030CB
     FM070200 33014KT 5SM -SHRA VCTS OVC012CB=

USA.gov is the U.S. government's official web portal to all federal, state and local government web resources and services.